Tiempo atmosférico en la estación meteorológica de Isaba/Izaba, Navarra (820 m.)



Fecha
DESCASC
Temp. máxima en grados centígrados (hora)
DESCASC
Temp. mínima en grados centígrados (hora)
DESCASC
Temp. media en grados centígrados
DESCASC
Racha de viento máxima en m/sg (hora)
DESCASC
Velocidad máxima media en intervalos de 10 minutos(hora)
DESCASC
Precipitaciones diarias en mm
DESCASC
Precipitaciones de 00:00 a 06:00 en mm
DESCASC
Precipitaciones de 06:00 a 12:00 en mm
DESCASC
Precipitaciones de 12:00 a 18:00 en mm
DESCASC
Precipitaciones de 18:00 a 24:00 en mm
DESCASC
22-08-2019 25.4 (14:10) 7.2 (07:50) 16.3 10.56 (15:50) 7.5 (17:10) 0 0 0 0 0
21-08-2019 28.5 (13:50) 7.9 (06:20) 18.2 10.56 (18:10) 7.22 (17:40) 0 0 0 0 0
20-08-2019 19.9 (14:00) 11 (23:59) 15.4 12.5 (17:00) 8.33 (16:40) 7.8 3.4 4.4 0 0
19-08-2019 19.6 (12:40) 12.7 (07:10) 16.2 11.39 (00:20) 7.5 (16:10) 0 0 0 0 0
18-08-2019 32.6 (14:50) 12.3 (00:00) 22.4 14.72 (15:30) 10 (15:30) 0 0 0 0 0
17-08-2019 33 (16:20) 10.3 (00:00) 21.7 7.78 (13:10) 4.17 (12:40) 0 0 0 0 0
16-08-2019 31.5 (17:30) 5.5 (00:00) 18.5 8.06 (15:40) 3.89 (12:40) 0 0 0 0 0
15-08-2019 24.3 (13:10) 10.1 (00:00) 17.2 13.61 (18:30) 9.44 (17:10) 0 0 0 0 0
14-08-2019 27.3 (14:50) 5.1 (00:00) 16.2 9.17 (18:30) 5 (17:50) 0 0 0 0 0
13-08-2019 19.2 (14:00) 8.9 (00:00) 14.1 13.33 (01:00) 8.61 (17:30) 0 0 0 0 0
12-08-2019 18.4 (17:20) 11.2 (00:00) 14.8 13.89 (05:40) 8.61 (15:30) 0 0 0 0 0
11-08-2019 25.3 (15:10) 13.8 (00:00) 19.5 10 (18:00) 6.11 (17:30) 17 0.8 16.2 0 0
10-08-2019 27.6 (13:50) 12.6 (00:00) 20.1 11.39 (17:50) 8.33 (18:00) 0.2 0 0 0 0.2
09-08-2019 31.9 (15:20) 18.2 (00:00) 25.1 14.72 (11:20) 6.67 (10:00) 4.6 0 0 0 4.6
08-08-2019 31 (15:50) 15.2 (00:00) 23.1 8.89 (12:40) 5 (16:20) 0.2 0.2 0 0 0
07-08-2019 29.8 (15:30) 16.2 (00:00) 23 8.89 (01:40) 4.72 (01:40) 0 0 0 0 0
06-08-2019 31.8 (16:40) 12.5 (00:00) 22.1 10 (23:30) 5.28 (23:59) 0 0 0 0 0
05-08-2019 32.3 (16:10) 12.4 (00:00) 22.3 8.89 (19:40) 5.83 (20:10) 0 0 0 0 0
04-08-2019 33.5 (17:20) 11.5 (00:00) 22.5 9.17 (19:10) 5.83 (19:10) 0 0 0 0 0
03-08-2019 32.6 (16:10) 8 (00:00) 20.3 10 (18:40) 6.67 (19:10) 0 0 0 0 0
02-08-2019 30 (13:50) 11.2 (00:00) 20.6 8.06 (19:20) 5.56 (19:30) 0 0 0 0 0
01-08-2019 28.9 (16:40) 11.2 (00:00) 20 11.39 (19:30) 6.94 (19:30) 6 1.6 4.4 0 0
31-07-2019 28.1 (14:40) 5 (00:00) 16.6 8.06 (15:50) 5 (20:30) 0 0 0 0 0
30-07-2019 21.2 (13:40) 11.3 (00:00) 16.3 13.33 (15:00) 8.61 (12:50) 0 0 0 0 0
29-07-2019 29.4 (17:20) 5.4 (00:00) 17.4 14.17 (19:40) 8.61 (19:20) 0 0 0 0 0
28-07-2019 20.7 (15:10) 10.2 (00:00) 15.5 11.67 (15:20) 6.67 (17:20) 0.4 0.4 0 0 0
27-07-2019 17.6 (14:10) 10.6 (00:00) 14.1 8.61 (19:50) 5.56 (16:10) 3.6 0.8 0.2 1.6 1
26-07-2019 23.7 (15:30) 14.4 (00:00) 19.1 10.28 (16:20) 6.39 (16:20) 19.2 0.2 5.4 11.6 2

Gráficas

Temp. máximas Temp. mínimas Temp. medias Precipitaciones Rachas de viento máximas Velocidades máximas media en intervalos de 10 minutos

Datos horarios

Fecha y hora oficial Temperatura (ºC) Velocidad del viento (km/h) Dirección del viento Racha (km/h) Dirección de racha Precipitación (mm) Presión (hPa) Tendencia (hPa) Humedad (%)
2019-08-24 23:00:00 15.3 6 Norte 10 Norte 0 -- -- 85
2019-08-24 22:00:00 16.9 6 Norte 9 Noroeste 0 -- -- 81
2019-08-24 21:00:00 19.4 5 Noroeste 14 Nordeste 0 -- -- 70
2019-08-24 20:00:00 23.3 10 Nordeste 25 Nordeste 0 -- -- 58
2019-08-24 19:00:00 26.8 8 Nordeste 19 Este 0 -- -- 47
2019-08-24 18:00:00 28.5 5 Norte 22 Nordeste 0 -- -- 42
2019-08-24 17:00:00 28.8 16 Nordeste 24 Nordeste 0 -- -- 39
2019-08-24 16:00:00 29.8 0 Calma 12 Noroeste 0 -- -- 30
2019-08-24 15:00:00 31.6 4 Sudeste 15 Sudeste 0 -- -- 24
2019-08-24 14:00:00 29.9 8 Sur 15 Sur 0 -- -- 27
2019-08-24 13:00:00 28.9 9 Sur 19 Sur 0 -- -- 27
2019-08-24 12:00:00 27.8 2 Nordeste 8 Sur 0 -- -- 42
2019-08-24 11:00:00 21.7 0 Calma 5 Nordeste 0 -- -- 58
2019-08-24 10:00:00 15.8 2 Nordeste 5 Norte 0 -- -- 72
2019-08-24 09:00:00 10.6 3 Nordeste 6 Norte 0 -- -- 96
2019-08-24 08:00:00 8.4 4 Norte 10 Norte 0 -- -- 98
2019-08-24 07:00:00 8.3 3 Norte 9 Norte 0 -- -- 98
2019-08-24 06:00:00 8.5 3 Norte 10 Norte 0 -- -- 97
2019-08-24 05:00:00 9 3 Norte 10 Norte 0 -- -- 96
2019-08-24 04:00:00 9.8 5 Norte 9 Norte 0 -- -- 95
2019-08-24 03:00:00 10.4 4 Norte 11 Norte 0 -- -- 94
2019-08-24 02:00:00 11.3 6 Norte 10 Norte 0 -- -- 93
2019-08-24 01:00:00 12.3 6 Norte 10 Norte 0 -- -- 91
2019-08-24 00:00:00 13.2 4 Norte 10 Norte 0 -- -- 90
2019-08-23 23:00:00 14.6 4 Noroeste 10 Norte 0 -- -- 86
2019-08-23 22:00:00 16.2 4 Norte 8 Noroeste 0 -- -- 79
2019-08-23 21:00:00 18.3 4 Noroeste 9 Noroeste 0 -- -- 66
2019-08-23 20:00:00 21.3 5 Norte 12 Norte 0 -- -- 50
2019-08-23 19:00:00 28.4 0 Calma 14 Sudoeste 0 -- -- 30
2019-08-23 18:00:00 29.6 6 Sudoeste 13 Oeste 0 -- -- 26
2019-08-23 17:00:00 29.9 5 Sudoeste 18 Sudoeste 0 -- -- 24
2019-08-23 16:00:00 29.4 9 Sudoeste 22 Sudoeste 0 -- -- 24
2019-08-23 15:00:00 29.1 7 Sudoeste 26 Sur 0 -- -- 23
2019-08-23 14:00:00 27.7 12 Sur 24 Sur 0 -- -- 30
2019-08-23 13:00:00 26.8 12 Sudoeste 24 Sudoeste 0 -- -- 35
2019-08-23 12:00:00 26 6 Sur 14 Sudoeste 0 -- -- 39
2019-08-23 11:00:00 20.9 0 Calma 5 Nordeste 0 -- -- 59
2019-08-23 10:00:00 15.1 0 Calma 5 Norte 0 -- -- 77
2019-08-23 09:00:00 9.8 3 Norte 9 Noroeste 0 -- -- 97
2019-08-23 08:00:00 7.5 4 Norte 9 Norte 0 -- -- 99
2019-08-23 07:00:00 7.5 5 Norte 10 Norte 0 -- -- 99
2019-08-23 06:00:00 7.8 6 Norte 10 Norte 0 -- -- 99
2019-08-23 05:00:00 8.4 4 Norte 11 Norte 0 -- -- 98
2019-08-23 04:00:00 8.8 5 Norte 10 Norte 0 -- -- 98
2019-08-23 03:00:00 9.5 6 Norte 12 Norte 0 -- -- 97
2019-08-23 02:00:00 10.2 8 Norte 13 Norte 0 -- -- 95
2019-08-23 01:00:00 10.9 4 Norte 11 Norte 0 -- -- 93
2019-08-23 00:00:00 11.9 6 Norte 11 Norte 0 -- -- 91
2019-08-22 23:00:00 13 7 Norte 12 Noroeste 0 -- -- 88
2019-08-22 22:00:00 14.1 5 Norte 12 Noroeste 0 -- -- 85
2019-08-22 21:00:00 17.1 7 Norte 26 Nordeste 0 -- -- 73
2019-08-22 20:00:00 19 16 Nordeste 27 Nordeste 0 -- -- 64
2019-08-22 19:00:00 21.6 20 Nordeste 34 Nordeste 0 -- -- 56
2019-08-22 18:00:00 22.9 24 Nordeste 38 Nordeste 0 -- -- 52
2019-08-22 17:00:00 23.7 26 Nordeste 36 Nordeste 0 -- -- 49
2019-08-22 16:00:00 24.5 26 Nordeste 38 Nordeste 0 -- -- 45
2019-08-22 15:00:00 25.1 24 Nordeste 36 Nordeste 0 -- -- 44
2019-08-22 14:00:00 25.2 21 Nordeste 32 Nordeste 0 -- -- 44
2019-08-22 13:00:00 24.7 18 Nordeste 28 Nordeste 0 -- -- 42
2019-08-22 12:00:00 23.6 16 Nordeste 29 Nordeste 0 -- -- 43
2019-08-22 11:00:00 20.3 5 Nordeste 13 Nordeste 0 -- -- 53
2019-08-22 10:00:00 13.5 3 Norte 8 Noroeste 0 -- -- 77
2019-08-22 09:00:00 9.3 3 Norte 13 Noroeste 0 -- -- 97
2019-08-22 08:00:00 7.2 5 Norte 16 Norte 0 -- -- 99
2019-08-22 07:00:00 7.8 5 Norte 14 Norte 0 -- -- 99
2019-08-22 06:00:00 8.6 6 Norte 15 Norte 0 -- -- 98
2019-08-22 05:00:00 9 4 Norte 17 Norte 0 -- -- 97
2019-08-22 04:00:00 9.8 8 Norte 15 Norte 0 -- -- 97
2019-08-22 03:00:00 10.4 7 Noroeste 12 Norte 0 -- -- 95
2019-08-22 02:00:00 11.5 7 Noroeste 11 Noroeste 0 -- -- 91
2019-08-22 01:00:00 13.9 4 Noroeste 15 Este 0 -- -- 83
2019-08-22 00:00:00 15.1 6 Nordeste 20 Nordeste 0 -- -- 79
2019-08-21 23:00:00 15.6 5 Nordeste 20 Nordeste 0 -- -- 79
2019-08-21 22:00:00 15.5 8 Nordeste 27 Nordeste 0 -- -- 82
2019-08-21 21:00:00 16.7 16 Nordeste 35 Nordeste 0 -- -- 78
2019-08-21 20:00:00 18.5 18 Nordeste 37 Este 0 -- -- 72
2019-08-21 19:00:00 20.6 14 Este 38 Nordeste 0 -- -- 64
2019-08-21 18:00:00 21.2 22 Nordeste 36 Nordeste 0 -- -- 63
2019-08-21 17:00:00 22.3 21 Nordeste 37 Nordeste 0 -- -- 60
2019-08-21 16:00:00 22.3 22 Nordeste 30 Nordeste 0 -- -- 60
2019-08-21 15:00:00 25.7 18 Nordeste 28 Nordeste 0 -- -- 50
2019-08-21 14:00:00 28.1 10 Nordeste 18 Nordeste 0 -- -- 45
2019-08-21 13:00:00 26.5 4 Norte 10 Norte 0 -- -- 53
2019-08-21 12:00:00 22.4 0 Calma 5 Nordeste 0 -- -- 61
2019-08-21 11:00:00 18 3 Norte 5 Nordeste 0 -- -- 78
2019-08-21 10:00:00 14.5 0 Calma 4 Nordeste 0 -- -- 91
2019-08-21 09:00:00 10.5 0 Calma 9 Norte 0 -- -- 99
2019-08-21 08:00:00 8.3 3 Norte 11 Norte 0 -- -- 100
2019-08-21 07:00:00 8 5 Norte 11 Norte 0 -- -- 100
2019-08-21 06:00:00 8 5 Norte 10 Norte 0 -- -- 100
2019-08-21 05:00:00 8.1 2 Norte 9 Norte 0 -- -- 100
2019-08-21 04:00:00 8.2 4 Noroeste 9 Norte 0 -- -- 99
2019-08-21 03:00:00 8.7 4 Norte 9 Norte 0 -- -- 99
2019-08-21 02:00:00 9.3 5 Norte 12 Noroeste 0 -- -- 98
2019-08-21 01:00:00 9.9 6 Noroeste 12 Noroeste 0 -- -- 97
2019-08-21 00:00:00 11 5 Noroeste 11 Noroeste 0 -- -- 93
2019-08-20 23:00:00 12.9 3 Norte 23 Nordeste 0 -- -- 87
2019-08-20 22:00:00 13.3 6 Nordeste 33 Nordeste 0 -- -- 86
2019-08-20 21:00:00 13.9 10 Nordeste 37 Nordeste 0 -- -- 83
2019-08-20 20:00:00 14.7 10 Nordeste 35 Nordeste 0 -- -- 79
2019-08-20 19:00:00 16.9 11 Nordeste 38 Nordeste 0 -- -- 72
2019-08-20 18:00:00 16.2 20 Nordeste 44 Nordeste 0 -- -- 74
2019-08-20 17:00:00 16.8 26 Nordeste 45 Nordeste 0 -- -- 74
2019-08-20 16:00:00 19.7 26 Nordeste 38 Este 0 -- -- 69
2019-08-20 15:00:00 18.8 21 Nordeste 40 Nordeste 0 -- -- 67
2019-08-20 14:00:00 19.9 24 Nordeste 41 Nordeste 0 -- -- 66
2019-08-20 13:00:00 18.7 26 Nordeste 40 Este 0 -- -- 69
2019-08-20 12:00:00 17.8 20 Nordeste 40 Nordeste 0 -- -- 76
2019-08-20 11:00:00 17.4 16 Nordeste 30 Este 0 -- -- 84
2019-08-20 10:00:00 12.5 8 Nordeste 33 Norte 0 -- -- 98
2019-08-20 09:00:00 11.7 6 Nordeste 33 Nordeste 1.8 -- -- 99
2019-08-20 08:00:00 12.3 7 Norte 16 Norte 1.4 -- -- 99
2019-08-20 07:00:00 12.4 10 Nordeste 19 Norte 1.2 -- -- 99
2019-08-20 06:00:00 12.6 2 Sur 10 Nordeste 0.4 -- -- 98
2019-08-20 05:00:00 12.6 3 Norte 15 Norte 0.4 -- -- 98
2019-08-20 04:00:00 12.6 5 Nordeste 17 Nordeste 2 -- -- 97
2019-08-20 03:00:00 12.8 3 Nordeste 13 Nordeste 0.6 -- -- 96
2019-08-20 02:00:00 13.5 4 Norte 20 Nordeste 0 -- -- 89
2019-08-20 01:00:00 13.8 4 Este 20 Este 0 -- -- 85
2019-08-20 00:00:00 13.8 5 Nordeste 21 Este 0 -- -- 86
2019-08-19 23:00:00 14.3 8 Nordeste 21 Nordeste 0 -- -- 82
2019-08-19 22:00:00 14.6 6 Este 26 Nordeste 0 -- -- 81
2019-08-19 21:00:00 14.6 17 Nordeste 27 Nordeste 0 -- -- 80
2019-08-19 20:00:00 15.4 20 Nordeste 37 Nordeste 0 -- -- 77
2019-08-19 19:00:00 16.6 23 Nordeste 39 Nordeste 0 -- -- 73
2019-08-19 18:00:00 17.2 21 Nordeste 39 Nordeste 0 -- -- 72
2019-08-19 17:00:00 17.1 26 Nordeste 39 Nordeste 0 -- -- 72
2019-08-19 16:00:00 18.9 26 Nordeste 38 Nordeste 0 -- -- 67
2019-08-19 15:00:00 18.6 21 Nordeste 33 Este 0 -- -- 68
2019-08-19 14:00:00 19.3 17 Nordeste 27 Nordeste 0 -- -- 65
2019-08-19 13:00:00 19 17 Nordeste 29 Nordeste 0 -- -- 64
2019-08-19 12:00:00 18.1 21 Nordeste 32 Nordeste 0 -- -- 63
2019-08-19 11:00:00 16.9 20 Nordeste 38 Nordeste 0 -- -- 68
2019-08-19 10:00:00 17.2 21 Nordeste 32 Nordeste 0 -- -- 66
2019-08-19 09:00:00 15 14 Nordeste 27 Nordeste 0 -- -- 72
2019-08-19 08:00:00 13.7 13 Nordeste 31 Nordeste 0 -- -- 78
2019-08-19 07:00:00 13 8 Nordeste 27 Nordeste 0 -- -- 82
2019-08-19 06:00:00 13.6 14 Nordeste 33 Nordeste 0 -- -- 79
2019-08-19 05:00:00 13.5 11 Nordeste 28 Nordeste 0 -- -- 80
2019-08-19 04:00:00 13.4 13 Nordeste 28 Este 0 -- -- 81
2019-08-19 03:00:00 14.1 14 Nordeste 29 Este 0 -- -- 79
2019-08-19 02:00:00 15.1 8 Norte 24 Norte 0 -- -- 80
2019-08-19 01:00:00 15.6 9 Nordeste 41 Norte 0 -- -- 79
2019-08-19 00:00:00 16.9 13 Nordeste 30 Nordeste 0 -- -- 77
2019-08-18 23:00:00 17.1 8 Norte 28 Noroeste 0 -- -- 79
2019-08-18 22:00:00 17.6 10 Norte 36 Norte 0 -- -- 78
2019-08-18 21:00:00 18.4 18 Nordeste 37 Nordeste 0 -- -- 77
2019-08-18 20:00:00 19.5 19 Nordeste 37 Nordeste 0 -- -- 75
2019-08-18 19:00:00 21.1 22 Nordeste 37 Este 0 -- -- 72
2019-08-18 18:00:00 22.6 22 Nordeste 35 Nordeste 0 -- -- 69
2019-08-18 17:00:00 26.3 19 Nordeste 34 Nordeste 0 -- -- 56
2019-08-18 16:00:00 25.8 20 Nordeste 53 Norte 0 -- -- 57
2019-08-18 15:00:00 30.6 14 Sudoeste 28 Sur 0 -- -- 31
2019-08-18 14:00:00 30.9 12 Sur 27 Sur 0 -- -- 34
2019-08-18 13:00:00 29.8 10 Sur 35 Sudoeste 0 -- -- 40
2019-08-18 12:00:00 27.9 10 Sur 27 Sur 0 -- -- 47
2019-08-18 11:00:00 25.6 12 Sur 27 Sur 0 -- -- 59
2019-08-18 10:00:00 23.2 16 Sur 28 Sur 0 -- -- 66
2019-08-18 09:00:00 15.6 2 Este 14 Noroeste 0 -- -- 87
2019-08-18 08:00:00 12.9 3 Norte 15 Norte 0 -- -- 95
2019-08-18 07:00:00 12.3 3 Este 9 Noroeste 0 -- -- 96
2019-08-18 06:00:00 12.7 3 Nordeste 12 Noroeste 0 -- -- 95
2019-08-18 05:00:00 13 3 Nordeste 7 Norte 0 -- -- 95
2019-08-18 04:00:00 13.3 3 Noroeste 9 Noroeste 0 -- -- 95
2019-08-18 03:00:00 14 3 Norte 9 Noroeste 0 -- -- 93
2019-08-18 02:00:00 14.4 3 Norte 8 Noroeste 0 -- -- 92
2019-08-18 01:00:00 15.1 3 Norte 7 Noroeste 0 -- -- 90
2019-08-18 00:00:00 16.2 2 Norte 10 Norte 0 -- -- 86
2019-08-17 23:00:00 17.3 4 Norte 10 Noroeste 0 -- -- 81
2019-08-17 22:00:00 18.8 4 Norte 9 Norte 0 -- -- 74
2019-08-17 21:00:00 21.3 5 Norte 10 Noroeste 0 -- -- 60
2019-08-17 20:00:00 25 5 Noroeste 14 Noroeste 0 -- -- 43
2019-08-17 19:00:00 31.6 6 Sudoeste 26 Sur 0 -- -- 25
2019-08-17 18:00:00 32.3 9 Sur 24 Sur 0 -- -- 23
2019-08-17 17:00:00 32.7 8 Sur 28 Sur 0 -- -- 21
2019-08-17 16:00:00 31.9 12 Sur 24 Sudoeste 0 -- -- 28
2019-08-17 15:00:00 32 9 Sur 27 Sudoeste 0 -- -- 30
2019-08-17 14:00:00 30.8 12 Sur 28 Sudoeste 0 -- -- 32
2019-08-17 13:00:00 29.3 15 Sur 27 Sur 0 -- -- 35
2019-08-17 12:00:00 28.5 12 Sur 21 Sur 0 -- -- 36
2019-08-17 11:00:00 23.5 0 Calma 8 Nordeste 0 -- -- 59
2019-08-17 10:00:00 18.4 2 Nordeste 5 Este 0 -- -- 71
2019-08-17 09:00:00 13.3 2 Norte 5 Norte 0 -- -- 96
2019-08-17 08:00:00 10.5 3 Norte 7 Norte 0 -- -- 99
2019-08-17 07:00:00 10.7 0 Calma 10 Norte 0 -- -- 98
2019-08-17 06:00:00 11.1 3 Norte 9 Norte 0 -- -- 98
2019-08-17 05:00:00 11.4 4 Norte 9 Norte 0 -- -- 97
2019-08-17 04:00:00 12.1 6 Norte 11 Norte 0 -- -- 97
2019-08-17 03:00:00 12.5 4 Norte 10 Norte 0 -- -- 96
2019-08-17 02:00:00 13.3 3 Norte 8 Noroeste 0 -- -- 94
2019-08-17 01:00:00 14.4 4 Norte 10 Noroeste 0 -- -- 91
2019-08-17 00:00:00 15.2 4 Norte 10 Noroeste 0 -- -- 89
2019-08-16 23:00:00 16.1 5 Norte 11 Norte 0 -- -- 87
2019-08-16 22:00:00 17.5 4 Norte 9 Norte 0 -- -- 81
2019-08-16 21:00:00 19.9 6 Noroeste 8 Noroeste 0 -- -- 69
2019-08-16 20:00:00 22.7 2 Noroeste 9 Norte 0 -- -- 54
2019-08-16 19:00:00 30.3 5 Noroeste 19 Noroeste 0 -- -- 32
2019-08-16 18:00:00 30.9 10 Norte 18 Norte 0 -- -- 33
2019-08-16 17:00:00 30.2 9 Sur 21 Sur 0 -- -- 27
2019-08-16 16:00:00 30.3 8 Sur 29 Sur 0 -- -- 25
2019-08-16 15:00:00 29.6 9 Sur 21 Sur 0 -- -- 24
2019-08-16 14:00:00 28.5 11 Sur 26 Sudoeste 0 -- -- 17
2019-08-16 13:00:00 26.6 12 Sur 24 Sudoeste 0 -- -- 29
2019-08-16 12:00:00 25 3 Nordeste 6 Nordeste 0 -- -- 41
2019-08-16 11:00:00 19.5 2 Nordeste 6 Nordeste 0 -- -- 52
2019-08-16 10:00:00 14 2 Nordeste 4 Norte 0 -- -- 68
2019-08-16 09:00:00 8.5 2 Norte 8 Norte 0 -- -- 95
2019-08-16 08:00:00 5.7 4 Norte 9 Norte 0 -- -- 99
2019-08-16 07:00:00 5.8 4 Norte 12 Norte 0 -- -- 99
2019-08-16 06:00:00 6 3 Norte 11 Nordeste 0 -- -- 99
2019-08-16 05:00:00 6.6 5 Norte 12 Nordeste 0 -- -- 99
2019-08-16 04:00:00 7.1 3 Norte 9 Norte 0 -- -- 98
2019-08-16 03:00:00 7.7 5 Norte 10 Norte 0 -- -- 97
2019-08-16 02:00:00 8.9 4 Noroeste 13 Norte 0 -- -- 95
2019-08-16 01:00:00 9.8 8 Norte 20 Noroeste 0 -- -- 93
2019-08-16 00:00:00 10.1 8 Noroeste 16 Noroeste 0 -- -- 92
2019-08-15 23:00:00 11.3 10 Norte 21 Norte 0 -- -- 88
2019-08-15 22:00:00 12.6 5 Norte 24 Nordeste 0 -- -- 83
2019-08-15 21:00:00 14.7 12 Nordeste 33 Nordeste 0 -- -- 75
2019-08-15 20:00:00 16 19 Nordeste 41 Este 0 -- -- 69
2019-08-15 19:00:00 18.7 24 Nordeste 49 Nordeste 0 -- -- 59
2019-08-15 18:00:00 20.4 28 Nordeste 49 Nordeste 0 -- -- 55
2019-08-15 17:00:00 21.1 32 Nordeste 46 Nordeste 0 -- -- 56
2019-08-15 16:00:00 22.2 25 Nordeste 41 Nordeste 0 -- -- 56
2019-08-15 15:00:00 23.1 20 Nordeste 36 Nordeste 0 -- -- 55
2019-08-15 14:00:00 24 14 Norte 30 Norte 0 -- -- 54
2019-08-15 13:00:00 23.8 8 Norte 28 Norte 0 -- -- 57
2019-08-15 12:00:00 22.3 15 Norte 30 Norte 0 -- -- 63
2019-08-15 11:00:00 22.9 13 Nordeste 36 Nordeste 0 -- -- 62
2019-08-15 10:00:00 20.7 10 Nordeste 19 Nordeste 0 -- -- 68
2019-08-15 09:00:00 16.9 5 Norte 15 Norte 0 -- -- 83
2019-08-15 08:00:00 13.6 7 Norte 16 Norte 0 -- -- 96
2019-08-15 07:00:00 14.2 7 Norte 17 Norte 0 -- -- 93
2019-08-15 06:00:00 14.4 8 Norte 15 Norte 0 -- -- 93
2019-08-15 05:00:00 14.2 8 Norte 17 Norte 0 -- -- 94
2019-08-15 04:00:00 14.5 10 Norte 18 Norte 0 -- -- 94
2019-08-15 03:00:00 14.4 9 Norte 21 Norte 0 -- -- 92
2019-08-15 02:00:00 14.9 9 Nordeste 17 Norte 0 -- -- 91
2019-08-15 01:00:00 15.3 6 Norte 17 Norte 0 -- -- 87
2019-08-15 00:00:00 15.4 7 Norte 23 Norte 0 -- -- 85
2019-08-14 23:00:00 14.9 5 Norte 19 Norte 0 -- -- 85
2019-08-14 22:00:00 16 5 Norte 18 Norte 0 -- -- 78
2019-08-14 21:00:00 17.5 7 Nordeste 19 Nordeste 0 -- -- 71
2019-08-14 20:00:00 19.3 9 Nordeste 24 Nordeste 0 -- -- 64
2019-08-14 19:00:00 22.2 10 Nordeste 33 Nordeste 0 -- -- 55
2019-08-14 18:00:00 24.1 18 Norte 31 Noroeste 0 -- -- 49
2019-08-14 17:00:00 27.1 12 Noroeste 25 Norte 0 -- -- 42
2019-08-14 16:00:00 26.9 8 Noroeste 27 Noroeste 0 -- -- 33
2019-08-14 15:00:00 27 11 Norte 22 Norte 0 -- -- 36
2019-08-14 14:00:00 26.6 10 Norte 22 Norte 0 -- -- 35
2019-08-14 13:00:00 25.9 5 Norte 16 Norte 0 -- -- 31
2019-08-14 12:00:00 24 3 Nordeste 5 Este 0 -- -- 35
2019-08-14 11:00:00 19.5 0 Calma 6 Nordeste 0 -- -- 60
2019-08-14 10:00:00 14.1 0 Calma 6 Noroeste 0 -- -- 72
2019-08-14 09:00:00 9.1 3 Norte 9 Norte 0 -- -- 90
2019-08-14 08:00:00 5.5 4 Norte 11 Norte 0 -- -- 99
2019-08-14 07:00:00 5.2 5 Norte 9 Norte 0 -- -- 98
2019-08-14 06:00:00 5.6 5 Norte 10 Nordeste 0 -- -- 98
2019-08-14 05:00:00 6.1 4 Norte 11 Nordeste 0 -- -- 97
2019-08-14 04:00:00 6.7 4 Norte 14 Norte 0 -- -- 96
2019-08-14 03:00:00 7.5 6 Norte 16 Norte 0 -- -- 96
2019-08-14 02:00:00 8 5 Norte 17 Noroeste 0 -- -- 95
2019-08-14 01:00:00 8.5 9 Norte 20 Norte 0 -- -- 94
2019-08-14 00:00:00 9.1 8 Norte 15 Norte 0 -- -- 92
2019-08-13 23:00:00 11.2 9 Norte 30 Nordeste 0 -- -- 82
2019-08-13 22:00:00 13 15 Nordeste 35 Nordeste 0 -- -- 76
2019-08-13 21:00:00 13.4 13 Nordeste 32 Nordeste 0 -- -- 73
2019-08-13 20:00:00 14.4 16 Nordeste 38 Nordeste 0 -- -- 68
2019-08-13 19:00:00 16.4 24 Nordeste 45 Este 0 -- -- 62
2019-08-13 18:00:00 18.1 27 Nordeste 43 Nordeste 0 -- -- 57
2019-08-13 17:00:00 18.4 28 Nordeste 42 Nordeste 0 -- -- 60
2019-08-13 16:00:00 18.6 27 Nordeste 43 Nordeste 0 -- -- 58
2019-08-13 15:00:00 19.1 27 Nordeste 44 Nordeste 0 -- -- 56
2019-08-13 14:00:00 19.2 24 Nordeste 41 Nordeste 0 -- -- 57
2019-08-13 13:00:00 18.4 27 Nordeste 38 Nordeste 0 -- -- 59
2019-08-13 12:00:00 18.5 21 Nordeste 35 Nordeste 0 -- -- 60
2019-08-13 11:00:00 15.4 15 Nordeste 38 Nordeste 0 -- -- 65
2019-08-13 10:00:00 13.2 15 Nordeste 31 Este 0 -- -- 69
2019-08-13 09:00:00 11.1 5 Norte 13 Norte 0 -- -- 82
2019-08-13 08:00:00 10.1 3 Nordeste 14 Noroeste 0 -- -- 82
2019-08-13 07:00:00 9.5 4 Noroeste 16 Este 0 -- -- 83
2019-08-13 06:00:00 10.2 5 Nordeste 21 Este 0 -- -- 78
2019-08-13 05:00:00 10.9 8 Norte 26 Norte 0 -- -- 74
2019-08-13 04:00:00 11.7 12 Norte 36 Noroeste 0 -- -- 78
2019-08-13 03:00:00 11.3 8 Nordeste 37 Norte 0 -- -- 80
2019-08-13 02:00:00 11.4 18 Norte 40 Norte 0 -- -- 80
2019-08-13 01:00:00 11.6 19 Norte 48 Norte 0 -- -- 80
2019-08-13 00:00:00 11.8 18 Noroeste 40 Norte 0 -- -- 81
2019-08-12 23:00:00 11.2 19 Norte 34 Norte 0 -- -- 84
2019-08-12 22:00:00 12 15 Norte 32 Norte 0 -- -- 82
2019-08-12 21:00:00 12.1 11 Nordeste 36 Este 0 -- -- 82
2019-08-12 20:00:00 13.5 12 Norte 40 Norte 0 -- -- 73
2019-08-12 19:00:00 15.6 22 Nordeste 36 Este 0 -- -- 65
2019-08-12 18:00:00 15.8 20 Nordeste 41 Noroeste 0 -- -- 67
2019-08-12 17:00:00 17 15 Nordeste 41 Nordeste 0 -- -- 67
2019-08-12 16:00:00 18.1 29 Nordeste 45 Nordeste 0 -- -- 63
2019-08-12 15:00:00 17.6 29 Nordeste 39 Nordeste 0 -- -- 64
2019-08-12 14:00:00 16.7 23 Nordeste 40 Nordeste 0 -- -- 67
2019-08-12 13:00:00 16 22 Nordeste 38 Norte 0 -- -- 71
2019-08-12 12:00:00 14.7 18 Nordeste 33 Este 0 -- -- 76
2019-08-12 11:00:00 15.3 17 Nordeste 34 Este 0 -- -- 76
2019-08-12 10:00:00 15.1 16 Nordeste 33 Nordeste 0 -- -- 77
2019-08-12 09:00:00 13.9 8 Nordeste 20 Norte 0 -- -- 84
2019-08-12 08:00:00 12.3 8 Norte 27 Norte 0 -- -- 89
2019-08-12 07:00:00 11.9 8 Norte 37 Norte 0 -- -- 89
2019-08-12 06:00:00 12.4 15 Norte 50 Norte 0 -- -- 86
2019-08-12 05:00:00 12.8 14 Nordeste 35 Norte 0 -- -- 86
2019-08-12 04:00:00 13.3 12 Norte 41 Nordeste 0 -- -- 86
2019-08-12 03:00:00 13.6 7 Nordeste 30 Nordeste 0 -- -- 88
2019-08-12 02:00:00 13.5 9 Norte 23 Noroeste 0 -- -- 90
2019-08-12 01:00:00 13.5 6 Norte 19 Norte 0 -- -- 90
2019-08-12 00:00:00 13.8 7 Nordeste 18 Nordeste 0 -- -- 89
2019-08-11 23:00:00 14 6 Nordeste 16 Nordeste 0 -- -- 91
2019-08-11 22:00:00 14.2 6 Norte 21 Nordeste 0 -- -- 87
2019-08-11 21:00:00 14.7 7 Nordeste 24 Nordeste 0 -- -- 87
2019-08-11 20:00:00 15.6 19 Nordeste 33 Nordeste 0 -- -- 82
2019-08-11 19:00:00 18.3 19 Nordeste 32 Nordeste 0 -- -- 74
2019-08-11 18:00:00 19.1 21 Nordeste 36 Nordeste 0 -- -- 73
2019-08-11 17:00:00 20 15 Nordeste 27 Este 0 -- -- 75
2019-08-11 16:00:00 20.4 11 Nordeste 18 Nordeste 0 -- -- 74
2019-08-11 15:00:00 24.5 3 Noroeste 8 Este 0 -- -- 56
2019-08-11 14:00:00 21.1 0 Calma 13 Nordeste 0 -- -- 72
2019-08-11 13:00:00 18.5 10 Nordeste 19 Nordeste 0 -- -- 84
2019-08-11 12:00:00 16.4 14 Nordeste 22 Nordeste 0 -- -- 95
2019-08-11 11:00:00 17.5 5 Nordeste 10 Nordeste 0 -- -- 99
2019-08-11 10:00:00 15.3 0 Calma 8 Nordeste 1.2 -- -- 100
2019-08-11 09:00:00 14.5 3 Este 12 Sudoeste 7.6 -- -- 100
2019-08-11 08:00:00 14.7 3 Sur 13 Norte 6.8 -- -- 99
2019-08-11 07:00:00 14.8 6 Norte 21 Este 0.6 -- -- 98
2019-08-11 06:00:00 15.2 3 Oeste 19 Este 0 -- -- 97
2019-08-11 05:00:00 15 4 Noroeste 15 Este 0.4 -- -- 98
2019-08-11 04:00:00 15.1 6 Nordeste 16 Norte 0 -- -- 98
2019-08-11 03:00:00 15 6 Norte 15 Norte 0 -- -- 99
2019-08-11 02:00:00 15 6 Norte 10 Norte 0 -- -- 98
2019-08-11 01:00:00 15.1 4 Norte 14 Norte 0.4 -- -- 97
2019-08-11 00:00:00 15.4 5 Norte 13 Norte 0.2 -- -- 94
2019-08-10 23:00:00 16.1 6 Norte 14 Nordeste 0 -- -- 89
2019-08-10 22:00:00 16.8 8 Nordeste 28 Nordeste 0 -- -- 83
2019-08-10 21:00:00 17.4 18 Nordeste 35 Nordeste 0 -- -- 80
2019-08-10 20:00:00 18.4 18 Nordeste 34 Nordeste 0 -- -- 76
2019-08-10 19:00:00 20.6 22 Nordeste 41 Nordeste 0 -- -- 70
2019-08-10 18:00:00 21.6 30 Nordeste 41 Nordeste 0 -- -- 66
2019-08-10 17:00:00 22.9 27 Nordeste 39 Nordeste 0 -- -- 62
2019-08-10 16:00:00 24.4 25 Nordeste 40 Nordeste 0 -- -- 56
2019-08-10 15:00:00 27.2 10 Noroeste 21 Noroeste 0 -- -- 51
2019-08-10 14:00:00 27.5 8 Norte 18 Norte 0 -- -- 49
2019-08-10 13:00:00 24.9 9 Norte 20 Noroeste 0 -- -- 56
2019-08-10 12:00:00 23.5 5 Sur 10 Sur 0 -- -- 57
2019-08-10 11:00:00 20.8 3 Este 8 Este 0 -- -- 69
2019-08-10 10:00:00 18.4 2 Nordeste 6 Nordeste 0 -- -- 83
2019-08-10 09:00:00 15.8 4 Nordeste 8 Nordeste 0 -- -- 97
2019-08-10 08:00:00 12.6 4 Nordeste 9 Nordeste 0 -- -- 100
2019-08-10 07:00:00 12.9 2 Norte 10 Norte 0 -- -- 100
2019-08-10 06:00:00 13.3 4 Nordeste 10 Nordeste 0 -- -- 99
2019-08-10 05:00:00 14.1 0 Calma 9 Nordeste 0 -- -- 99
2019-08-10 04:00:00 14.9 3 Nordeste 7 Nordeste 0 -- -- 98
2019-08-10 03:00:00 15.4 0 Calma 5 Oeste 0 -- -- 97
2019-08-10 02:00:00 15.8 3 Sudoeste 6 Sudoeste 0 -- -- 96
2019-08-10 01:00:00 17.5 0 Calma 10 Sudeste 0 -- -- 97
2019-08-10 00:00:00 18.2 5 Sudeste 13 Este 0.8 -- -- 97
2019-08-09 23:00:00 19 0 Calma 7 Sudeste 0.2 -- -- 98
2019-08-09 22:00:00 19.4 3 Oeste 6 Nordeste 2.2 -- -- 97
2019-08-09 21:00:00 19.8 0 Calma 19 Este 1.4 -- -- 95
2019-08-09 20:00:00 22.2 7 Sudeste 24 Noroeste 0 -- -- 76
2019-08-09 19:00:00 27.1 8 Norte 15 Norte 0 -- -- 54
2019-08-09 18:00:00 27.8 5 Norte 24 Sudoeste 0 -- -- 49
2019-08-09 17:00:00 29.5 6 Sudeste 33 Sudoeste 0 -- -- 36
2019-08-09 16:00:00 31.9 8 Sur 38 Oeste 0 -- -- 32
2019-08-09 15:00:00 30.2 13 Sur 35 Sudoeste 0 -- -- 32
2019-08-09 14:00:00 31.2 10 Sudoeste 37 Sur 0 -- -- 31
2019-08-09 13:00:00 30.2 17 Sudoeste 40 Sudoeste 0 -- -- 33
2019-08-09 12:00:00 29.5 14 Sur 53 Sudoeste 0 -- -- 34
2019-08-09 11:00:00 28.5 18 Sudoeste 41 Sudoeste 0 -- -- 37
2019-08-09 10:00:00 27 24 Sudoeste 45 Sudoeste 0 -- -- 42
2019-08-09 09:00:00 25.7 13 Sur 31 Sur 0 -- -- 46
2019-08-09 08:00:00 22.6 7 Sur 19 Sur 0 -- -- 56
2019-08-09 07:00:00 23.2 10 Sur 19 Sudoeste 0 -- -- 53
2019-08-09 06:00:00 24.7 9 Sudoeste 20 Sudoeste 0 -- -- 49
2019-08-09 05:00:00 25.8 13 Sudeste 41 Sudeste 0 -- -- 46
2019-08-09 04:00:00 25.5 10 Sur 24 Este 0 -- -- 47
2019-08-09 03:00:00 26.1 5 Sur 32 Este 0 -- -- 44
2019-08-09 02:00:00 25.9 8 Sur 24 Sur 0 -- -- 43
2019-08-09 01:00:00 24.3 10 Sur 24 Sudoeste 0 -- -- 49
2019-08-09 00:00:00 18.8 8 Noroeste 17 Norte 0 -- -- 76
2019-08-08 23:00:00 19.4 4 Norte 11 Norte 0 -- -- 75
2019-08-08 22:00:00 20.8 4 Norte 13 Noroeste 0 -- -- 69
2019-08-08 21:00:00 23.5 4 Noroeste 14 Sudoeste 0 -- -- 55
2019-08-08 20:00:00 27.9 8 Sur 20 Sur 0 -- -- 39
2019-08-08 19:00:00 30.3 6 Sudeste 17 Sur 0 -- -- 36
2019-08-08 18:00:00 30.4 9 Oeste 25 Oeste 0 -- -- 35
2019-08-08 17:00:00 30 13 Sudoeste 29 Sur 0 -- -- 35
2019-08-08 16:00:00 30.5 12 Sur 27 Sur 0 -- -- 37
2019-08-08 15:00:00 28.5 10 Sur 24 Sudoeste 0 -- -- 40
2019-08-08 14:00:00 27.7 7 Sudoeste 28 Sur 0 -- -- 43
2019-08-08 13:00:00 27.3 13 Sudoeste 32 Sudoeste 0 -- -- 43
2019-08-08 12:00:00 26.4 13 Sur 26 Sur 0 -- -- 47
2019-08-08 11:00:00 24.4 9 Sur 18 Sudoeste 0 -- -- 52
2019-08-08 10:00:00 21.1 4 Sur 11 Sudoeste 0 -- -- 68
2019-08-08 09:00:00 18.7 2 Norte 5 Sudeste 0 -- -- 86
2019-08-08 08:00:00 15.3 0 Calma 3 Noroeste 0 -- -- 98
2019-08-08 07:00:00 15.9 0 Calma 5 Noroeste 0 -- -- 97
2019-08-08 06:00:00 16.4 2 Sur 5 Noroeste 0 -- -- 97
2019-08-08 05:00:00 16.7 2 Nordeste 5 Sudoeste 0 -- -- 95
2019-08-08 04:00:00 16.8 2 Sudoeste 9 Sudeste 0.2 -- -- 94
2019-08-08 03:00:00 17.7 3 Noroeste 5 Noroeste 0 -- -- 91
2019-08-08 02:00:00 18.6 0 Calma 6 Nordeste 0 -- -- 84
2019-08-08 01:00:00 19 0 Calma 4 Norte 0 -- -- 83
2019-08-08 00:00:00 19.3 2 Este 5 Noroeste 0 -- -- 81
2019-08-07 23:00:00 20.1 3 Norte 5 Norte 0 -- -- 76
2019-08-07 22:00:00 20.9 0 Calma 9 Noroeste 0 -- -- 70
2019-08-07 21:00:00 22.5 4 Norte 12 Norte 0 -- -- 62
2019-08-07 20:00:00 24.3 4 Norte 10 Noroeste 0 -- -- 54
2019-08-07 19:00:00 25.8 6 Sudoeste 19 Sudoeste 0 -- -- 42
2019-08-07 18:00:00 26.9 8 Sudoeste 23 Sur 0 -- -- 38
2019-08-07 17:00:00 28.3 6 Sur 30 Sur 0 -- -- 34
2019-08-07 16:00:00 28.8 14 Sur 27 Sur 0 -- -- 30
2019-08-07 15:00:00 28.3 14 Sur 28 Sur 0 -- -- 33
2019-08-07 14:00:00 28.5 10 Sur 23 Sur 0 -- -- 35
2019-08-07 13:00:00 26.7 12 Sur 19 Sur 0 -- -- 43
2019-08-07 12:00:00 27.3 4 Este 8 Este 0 -- -- 48
2019-08-07 11:00:00 23 4 Sudeste 9 Sur 0 -- -- 69
2019-08-07 10:00:00 20.7 3 Noroeste 5 Norte 0 -- -- 76
2019-08-07 09:00:00 18.7 2 Norte 15 Nordeste 0 -- -- 84
2019-08-07 08:00:00 16.5 4 Norte 11 Norte 0 -- -- 89
2019-08-07 07:00:00 16.2 3 Norte 8 Norte 0 -- -- 90
2019-08-07 06:00:00 16.2 3 Nordeste 15 Norte 0 -- -- 89
2019-08-07 05:00:00 16.9 4 Norte 24 Nordeste 0 -- -- 84
2019-08-07 04:00:00 17.4 6 Nordeste 18 Este 0 -- -- 81
2019-08-07 03:00:00 17.7 7 Nordeste 22 Nordeste 0 -- -- 83
2019-08-07 02:00:00 17.9 14 Nordeste 32 Nordeste 0 -- -- 84
2019-08-07 01:00:00 18.6 14 Nordeste 31 Nordeste 0 -- -- 83
2019-08-07 00:00:00 19.2 19 Nordeste 36 Nordeste 0 -- -- 82
2019-08-06 23:00:00 20.1 10 Este 26 Este 0 -- -- 78
2019-08-06 22:00:00 20.8 13 Nordeste 27 Nordeste 0 -- -- 73
2019-08-06 21:00:00 22.1 12 Nordeste 26 Nordeste 0 -- -- 69
2019-08-06 20:00:00 24.2 17 Nordeste 26 Nordeste 0 -- -- 62
2019-08-06 19:00:00 26.6 10 Norte 21 Norte 0 -- -- 55
2019-08-06 18:00:00 30.4 6 Oeste 17 Oeste 0 -- -- 37
2019-08-06 17:00:00 31.7 6 Oeste 20 Sudoeste 0 -- -- 31
2019-08-06 16:00:00 30.7 10 Sur 24 Sudoeste 0 -- -- 30
2019-08-06 15:00:00 30.4 8 Sudoeste 23 Sudoeste 0 -- -- 35
2019-08-06 14:00:00 29 10 Sur 25 Sur 0 -- -- 38
2019-08-06 13:00:00 29.1 12 Sur 28 Sur 0 -- -- 40
2019-08-06 12:00:00 28.1 11 Sudoeste 22 Sur 0 -- -- 47
2019-08-06 11:00:00 24.9 8 Sur 18 Sudoeste 0 -- -- 58
2019-08-06 10:00:00 20.7 0 Calma 5 Este 0 -- -- 72
2019-08-06 09:00:00 16.2 3 Norte 6 Norte 0 -- -- 88
2019-08-06 08:00:00 12.8 0 Calma 4 Norte 0 -- -- 99
2019-08-06 07:00:00 12.6 3 Norte 7 Noroeste 0 -- -- 99
2019-08-06 06:00:00 13 0 Calma 7 Norte 0 -- -- 98
2019-08-06 05:00:00 13.7 0 Calma 9 Norte 0 -- -- 97
2019-08-06 04:00:00 14.1 5 Norte 9 Norte 0 -- -- 96
2019-08-06 03:00:00 14.8 4 Norte 8 Norte 0 -- -- 94
2019-08-06 02:00:00 15.6 4 Norte 10 Norte 0 -- -- 92
2019-08-06 01:00:00 16.5 3 Norte 13 Norte 0 -- -- 89
2019-08-06 00:00:00 17 4 Norte 9 Norte 0 -- -- 88
2019-08-05 23:00:00 18.4 4 Norte 14 Norte 0 -- -- 82
2019-08-05 22:00:00 20.1 10 Nordeste 26 Nordeste 0 -- -- 74
2019-08-05 21:00:00 21.5 14 Nordeste 32 Nordeste 0 -- -- 70
2019-08-05 20:00:00 24.4 20 Nordeste 32 Norte 0 -- -- 60
2019-08-05 19:00:00 29.8 8 Norte 21 Sur 0 -- -- 41
2019-08-05 18:00:00 31.5 6 Sur 18 Sur 0 -- -- 33
2019-08-05 17:00:00 31.2 5 Sur 24 Sudoeste 0 -- -- 32
2019-08-05 16:00:00 31.8 12 Sur 26 Sudoeste 0 -- -- 29
2019-08-05 15:00:00 31.3 11 Sur 26 Sur 0 -- -- 36
2019-08-05 14:00:00 30.7 12 Sudoeste 27 Sudoeste 0 -- -- 35
2019-08-05 13:00:00 29.3 12 Sur 23 Sur 0 -- -- 43
2019-08-05 12:00:00 27.1 12 Sur 23 Sur 0 -- -- 53
2019-08-05 11:00:00 25.2 3 Nordeste 6 Este 0 -- -- 64
2019-08-05 10:00:00 20.6 0 Calma 4 Nordeste 0 -- -- 73
2019-08-05 09:00:00 16 0 Calma 7 Norte 0 -- -- 94
2019-08-05 08:00:00 12.7 3 Norte 6 Nordeste 0 -- -- 99
2019-08-05 07:00:00 12.6 0 Calma 5 Norte 0 -- -- 99
2019-08-05 06:00:00 13 3 Norte 6 Norte 0 -- -- 99
2019-08-05 05:00:00 13.6 3 Norte 6 Noroeste 0 -- -- 98
2019-08-05 04:00:00 14.2 2 Norte 5 Norte 0 -- -- 98
2019-08-05 03:00:00 14.9 3 Norte 8 Norte 0 -- -- 96
2019-08-05 02:00:00 15.6 5 Norte 8 Norte 0 -- -- 95
2019-08-05 01:00:00 16.4 4 Norte 12 Noroeste 0 -- -- 92
2019-08-05 00:00:00 17.3 4 Norte 12 Nordeste 0 -- -- 90
2019-08-04 23:00:00 18.8 8 Norte 23 Nordeste 0 -- -- 83
2019-08-04 22:00:00 19.9 15 Nordeste 25 Nordeste 0 -- -- 78
2019-08-04 21:00:00 21.5 15 Nordeste 26 Nordeste 0 -- -- 71
2019-08-04 20:00:00 24.1 13 Nordeste 33 Nordeste 0 -- -- 62
2019-08-04 19:00:00 28.6 16 Nordeste 31 Nordeste 0 -- -- 48
2019-08-04 18:00:00 32.6 6 Noroeste 23 Oeste 0 -- -- 27
2019-08-04 17:00:00 32.5 12 Oeste 29 Oeste 0 -- -- 29
2019-08-04 16:00:00 32 8 Sur 21 Sudoeste 0 -- -- 33
2019-08-04 15:00:00 31.6 11 Sur 29 Sur 0 -- -- 35
2019-08-04 14:00:00 30.7 13 Sudoeste 27 Sur 0 -- -- 35
2019-08-04 13:00:00 29.4 14 Sur 24 Sudoeste 0 -- -- 40
2019-08-04 12:00:00 28.6 3 Nordeste 6 Nordeste 0 -- -- 48
2019-08-04 11:00:00 25 0 Calma 5 Nordeste 0 -- -- 52
2019-08-04 10:00:00 20.1 0 Calma 4 Nordeste 0 -- -- 69
2019-08-04 09:00:00 15.6 0 Calma 5 Norte 0 -- -- 81
2019-08-04 08:00:00 11.7 3 Norte 8 Norte 0 -- -- 98
2019-08-04 07:00:00 11.6 5 Norte 9 Norte 0 -- -- 98
2019-08-04 06:00:00 12.1 6 Norte 10 Norte 0 -- -- 98
2019-08-04 05:00:00 12.6 5 Norte 11 Norte 0 -- -- 97
2019-08-04 04:00:00 13.3 6 Norte 12 Norte 0 -- -- 96
2019-08-04 03:00:00 14 5 Norte 13 Norte 0 -- -- 95
2019-08-04 02:00:00 14.9 5 Norte 12 Nordeste 0 -- -- 93
2019-08-04 01:00:00 15.3 6 Norte 13 Norte 0 -- -- 92
2019-08-04 00:00:00 16.2 7 Norte 14 Norte 0 -- -- 91
2019-08-03 23:00:00 17.6 5 Norte 12 Norte 0 -- -- 87
2019-08-03 22:00:00 19 8 Norte 24 Nordeste 0 -- -- 82
2019-08-03 21:00:00 22.1 13 Nordeste 24 Nordeste 0 -- -- 69
2019-08-03 20:00:00 24.4 17 Nordeste 35 Nordeste 0 -- -- 55
2019-08-03 19:00:00 27 19 Nordeste 36 Nordeste 0 -- -- 49
2019-08-03 18:00:00 32.1 2 Oeste 21 Sur 0 -- -- 30
2019-08-03 17:00:00 32.3 6 Sudoeste 22 Sur 0 -- -- 27
2019-08-03 16:00:00 32 7 Sudoeste 23 Sudoeste 0 -- -- 36
2019-08-03 15:00:00 31.3 10 Sur 22 Sur 0 -- -- 29
2019-08-03 14:00:00 30.4 10 Sur 19 Sur 0 -- -- 31
2019-08-03 13:00:00 29.5 8 Sur 16 Sur 0 -- -- 29
2019-08-03 12:00:00 26.4 0 Calma 5 Nordeste 0 -- -- 46
2019-08-03 11:00:00 21.9 0 Calma 4 Nordeste 0 -- -- 57
2019-08-03 10:00:00 16.5 0 Calma 5 Nordeste 0 -- -- 71
2019-08-03 09:00:00 11.9 3 Nordeste 9 Nordeste 0 -- -- 88
2019-08-03 08:00:00 8.2 3 Norte 9 Norte 0 -- -- 99
2019-08-03 07:00:00 8 5 Nordeste 9 Nordeste 0 -- -- 99
2019-08-03 06:00:00 8.4 4 Norte 8 Norte 0 -- -- 99
2019-08-03 05:00:00 9.1 5 Norte 10 Norte 0 -- -- 99
2019-08-03 04:00:00 9.8 4 Norte 10 Noroeste 0 -- -- 99
2019-08-03 03:00:00 10.3 5 Norte 8 Norte 0 -- -- 98
2019-08-03 02:00:00 11.1 3 Norte 14 Nordeste 0 -- -- 96
2019-08-03 01:00:00 11.8 5 Norte 14 Norte 0 -- -- 94
2019-08-03 00:00:00 12.8 7 Norte 15 Norte 0 -- -- 92
2019-08-02 23:00:00 14 6 Norte 13 Noroeste 0 -- -- 87
2019-08-02 22:00:00 15.8 5 Noroeste 18 Nordeste 0 -- -- 81
2019-08-02 21:00:00 18 7 Nordeste 27 Nordeste 0 -- -- 73
2019-08-02 20:00:00 21.2 17 Nordeste 29 Nordeste 0 -- -- 60
2019-08-02 19:00:00 24.3 15 Nordeste 27 Nordeste 0 -- -- 46
2019-08-02 18:00:00 26.9 14 Norte 24 Norte 0 -- -- 47
2019-08-02 17:00:00 28.9 15 Norte 23 Norte 0 -- -- 43
2019-08-02 16:00:00 29.3 9 Norte 23 Norte 0 -- -- 40
2019-08-02 15:00:00 28.6 15 Norte 27 Norte 0 -- -- 40
2019-08-02 14:00:00 29.9 6 Norte 12 Norte 0 -- -- 43
2019-08-02 13:00:00 28.4 3 Norte 6 Nordeste 0 -- -- 42
2019-08-02 12:00:00 25.8 0 Calma 6 Este 0 -- -- 52
2019-08-02 11:00:00 22.8 3 Nordeste 7 Este 0 -- -- 68
2019-08-02 10:00:00 19.2 0 Calma 3 Nordeste 0 -- -- 81
2019-08-02 09:00:00 14.3 2 Norte 8 Noroeste 0 -- -- 97
2019-08-02 08:00:00 11.5 2 Norte 14 Norte 0 -- -- 100
2019-08-02 07:00:00 11.2 4 Norte 11 Norte 0 -- -- 100
2019-08-02 06:00:00 11.8 4 Norte 9 Noroeste 0 -- -- 99
2019-08-02 05:00:00 12.8 4 Norte 15 Norte 0 -- -- 99
2019-08-02 04:00:00 13 4 Norte 14 Norte 0 -- -- 99
2019-08-02 03:00:00 13.6 5 Norte 14 Norte 0 -- -- 98
2019-08-02 02:00:00 14.3 6 Norte 14 Norte 0 -- -- 96
2019-08-02 01:00:00 15 7 Norte 17 Nordeste 0 -- -- 95
2019-08-02 00:00:00 15.9 8 Norte 19 Norte 0 -- -- 92
2019-08-01 23:00:00 16.3 7 Norte 15 Norte 0 -- -- 92
2019-08-01 22:00:00 17.3 5 Norte 26 Nordeste 0 -- -- 88
2019-08-01 21:00:00 18 13 Nordeste 37 Nordeste 0 -- -- 86
2019-08-01 20:00:00 19 22 Nordeste 41 Nordeste 0 -- -- 83
2019-08-01 19:00:00 22.2 23 Nordeste 33 Nordeste 0 -- -- 71
2019-08-01 18:00:00 23.5 15 Nordeste 25 Nordeste 0 -- -- 66
2019-08-01 17:00:00 25.6 18 Norte 27 Norte 0 -- -- 66
2019-08-01 16:00:00 27.1 5 Sudoeste 23 Norte 0 -- -- 61
2019-08-01 15:00:00 26.7 9 Norte 22 Norte 0 -- -- 64
2019-08-01 14:00:00 24 7 Norte 18 Norte 0 -- -- 73
2019-08-01 13:00:00 21.4 2 Nordeste 10 Oeste 0 -- -- 74
2019-08-01 12:00:00 15 3 Sudeste 19 Oeste 0.4 -- -- 99
2019-08-01 11:00:00 13.6 5 Nordeste 27 Nordeste 0.6 -- -- 99
2019-08-01 10:00:00 13.4 12 Nordeste 38 Este 0 -- -- 99
2019-08-01 09:00:00 13.5 14 Nordeste 25 Nordeste 0.6 -- -- 99
2019-08-01 08:00:00 12.9 2 Sur 16 Norte 2 -- -- 100
2019-08-01 07:00:00 12.1 0 Calma 7 Norte 0.8 -- -- 99
2019-08-01 06:00:00 12 2 Norte 11 Norte 1.6 -- -- 99
2019-08-01 05:00:00 11.4 2 Noroeste 10 Norte 0 -- -- 98
2019-08-01 04:00:00 11.3 5 Norte 10 Norte 0 -- -- 98
2019-08-01 03:00:00 11.7 6 Norte 10 Noroeste 0 -- -- 97
2019-08-01 02:00:00 12.2 3 Norte 11 Nordeste 0 -- -- 97
2019-08-01 01:00:00 12.8 4 Norte 11 Nordeste 0 -- -- 95
2019-08-01 00:00:00 13.6 3 Norte 8 Nordeste 0 -- -- 94
2019-07-31 23:00:00 14.8 4 Norte 14 Nordeste 0 -- -- 91
2019-07-31 22:00:00 16.3 9 Nordeste 21 Nordeste 0 -- -- 80
2019-07-31 21:00:00 18.2 14 Nordeste 26 Nordeste 0 -- -- 71
2019-07-31 20:00:00 20.6 14 Nordeste 25 Nordeste 0 -- -- 63
2019-07-31 19:00:00 24.5 10 Noroeste 17 Oeste 0 -- -- 55
2019-07-31 18:00:00 27 3 Sudoeste 16 Sur 0 -- -- 41
2019-07-31 17:00:00 25.4 6 Oeste 25 Sur 0 -- -- 39
2019-07-31 16:00:00 27 12 Sudoeste 29 Sudoeste 0 -- -- 38
2019-07-31 15:00:00 27 8 Sur 18 Sur 0 -- -- 38
2019-07-31 14:00:00 25 7 Sur 17 Sur 0 -- -- 35
2019-07-31 13:00:00 23.4 10 Sur 19 Sur 0 -- -- 39
2019-07-31 12:00:00 20.9 4 Sur 11 Sur 0 -- -- 51
2019-07-31 11:00:00 18.7 0 Calma 5 Nordeste 0 -- -- 58
2019-07-31 10:00:00 14.4 0 Calma 5 Nordeste 0 -- -- 65
2019-07-31 09:00:00 9.1 2 Nordeste 10 Norte 0 -- -- 87
2019-07-31 08:00:00 5.7 3 Norte 10 Norte 0 -- -- 99
2019-07-31 07:00:00 5 2 Norte 10 Norte 0 -- -- 99
2019-07-31 06:00:00 5.2 4 Norte 10 Norte 0 -- -- 98
2019-07-31 05:00:00 5.9 5 Norte 14 Norte 0 -- -- 98
2019-07-31 04:00:00 6.2 5 Norte 13 Norte 0 -- -- 97
2019-07-31 03:00:00 7.1 5 Norte 17 Norte 0 -- -- 95
2019-07-31 02:00:00 8.3 8 Noroeste 15 Norte 0 -- -- 91
2019-07-31 01:00:00 10.9 6 Nordeste 26 Este 0 -- -- 81
2019-07-31 00:00:00 11.3 6 Nordeste 28 Noroeste 0 -- -- 82
2019-07-30 23:00:00 11.7 8 Nordeste 29 Noroeste 0 -- -- 82
2019-07-30 22:00:00 12.2 14 Norte 31 Norte 0 -- -- 79
2019-07-30 21:00:00 12.6 10 Norte 33 Este 0 -- -- 78
2019-07-30 20:00:00 14 17 Nordeste 38 Nordeste 0 -- -- 76
2019-07-30 19:00:00 15.6 19 Nordeste 43 Nordeste 0 -- -- 70
2019-07-30 18:00:00 17 26 Nordeste 46 Este 0 -- -- 63
2019-07-30 17:00:00 18.4 24 Nordeste 43 Nordeste 0 -- -- 60
2019-07-30 16:00:00 16.9 28 Nordeste 47 Nordeste 0 -- -- 66
2019-07-30 15:00:00 17.6 28 Nordeste 48 Nordeste 0 -- -- 65
2019-07-30 14:00:00 18.5 22 Nordeste 41 Nordeste 0 -- -- 64
2019-07-30 13:00:00 18.6 31 Nordeste 41 Nordeste 0 -- -- 61
2019-07-30 12:00:00 18 28 Nordeste 41 Nordeste 0 -- -- 64
2019-07-30 11:00:00 16.9 24 Nordeste 40 Este 0 -- -- 66
2019-07-30 10:00:00 17.2 13 Nordeste 28 Nordeste 0 -- -- 67
2019-07-30 09:00:00 13.2 10 Nordeste 31 Nordeste 0 -- -- 79
2019-07-30 08:00:00 12.9 11 Norte 30 Nordeste 0 -- -- 82
2019-07-30 07:00:00 12.4 14 Nordeste 28 Nordeste 0 -- -- 83
2019-07-30 06:00:00 13 8 Nordeste 21 Nordeste 0 -- -- 82
2019-07-30 05:00:00 13.3 10 Nordeste 32 Norte 0 -- -- 80
2019-07-30 04:00:00 14.1 9 Norte 34 Nordeste 0 -- -- 81
2019-07-30 03:00:00 14 11 Norte 31 Norte 0 -- -- 81
2019-07-30 02:00:00 14 15 Norte 38 Norte 0 -- -- 81
2019-07-30 01:00:00 14.1 10 Nordeste 30 Nordeste 0 -- -- 81
2019-07-30 00:00:00 14.4 13 Nordeste 34 Este 0 -- -- 82
2019-07-29 23:00:00 15 14 Nordeste 26 Nordeste 0 -- -- 81
2019-07-29 22:00:00 15.6 10 Nordeste 36 Este 0 -- -- 82
2019-07-29 21:00:00 16.7 17 Nordeste 40 Nordeste 0 -- -- 83
2019-07-29 20:00:00 18 28 Nordeste 51 Nordeste 0 -- -- 79
2019-07-29 19:00:00 21.2 28 Nordeste 39 Nordeste 0 -- -- 70
2019-07-29 18:00:00 24.2 25 Nordeste 40 Nordeste 0 -- -- 59
2019-07-29 17:00:00 28.5 10 Oeste 22 Sur 0 -- -- 33
2019-07-29 16:00:00 27.9 10 Sur 23 Sur 0 -- -- 29
2019-07-29 15:00:00 28.7 5 Nordeste 26 Sur 0 -- -- 39
2019-07-29 14:00:00 27.5 8 Sur 22 Sudoeste 0 -- -- 33
2019-07-29 13:00:00 26.2 9 Sur 17 Sudoeste 0 -- -- 36
2019-07-29 12:00:00 25.3 4 Nordeste 6 Nordeste 0 -- -- 50
2019-07-29 11:00:00 20.4 0 Calma 5 Nordeste 0 -- -- 62
2019-07-29 10:00:00 15 2 Nordeste 4 Norte 0 -- -- 73
2019-07-29 09:00:00 9.8 3 Norte 8 Nordeste 0 -- -- 96
2019-07-29 08:00:00 5.7 4 Norte 8 Nordeste 0 -- -- 100
2019-07-29 07:00:00 5.5 5 Norte 9 Noroeste 0 -- -- 100
2019-07-29 06:00:00 5.7 3 Norte 10 Norte 0 -- -- 100
2019-07-29 05:00:00 6.4 4 Norte 10 Noroeste 0 -- -- 99
2019-07-29 04:00:00 7.1 6 Norte 13 Norte 0 -- -- 99
2019-07-29 03:00:00 7.8 6 Norte 13 Norte 0 -- -- 99
2019-07-29 02:00:00 8.6 7 Norte 13 Norte 0 -- -- 99
2019-07-29 01:00:00 9.5 4 Norte 12 Noroeste 0 -- -- 99
2019-07-29 00:00:00 10.2 4 Norte 14 Norte 0 -- -- 98
2019-07-28 23:00:00 10.9 5 Norte 8 Norte 0 -- -- 96
2019-07-28 22:00:00 12.4 3 Norte 11 Norte 0 -- -- 92
2019-07-28 21:00:00 14.6 8 Nordeste 26 Este 0 -- -- 80
2019-07-28 20:00:00 17.1 16 Nordeste 32 Nordeste 0 -- -- 69
2019-07-28 19:00:00 17.9 18 Nordeste 34 Nordeste 0 -- -- 67
2019-07-28 18:00:00 19.4 22 Nordeste 41 Nordeste 0 -- -- 59
2019-07-28 17:00:00 20.1 23 Nordeste 42 Nordeste 0 -- -- 56
2019-07-28 16:00:00 20.5 19 Nordeste 42 Nordeste 0 -- -- 58
2019-07-28 15:00:00 20.6 17 Nordeste 30 Nordeste 0 -- -- 57
2019-07-28 14:00:00 20.2 19 Nordeste 37 Nordeste 0 -- -- 57
2019-07-28 13:00:00 19.2 17 Norte 41 Norte 0 -- -- 65
2019-07-28 12:00:00 18.2 16 Norte 39 Nordeste 0 -- -- 68
2019-07-28 11:00:00 17.5 16 Nordeste 32 Norte 0 -- -- 71
2019-07-28 10:00:00 15.3 12 Noroeste 28 Norte 0 -- -- 76
2019-07-28 09:00:00 11.4 14 Nordeste 28 Norte 0 -- -- 96
2019-07-28 08:00:00 11 11 Norte 27 Norte 0 -- -- 96
2019-07-28 07:00:00 10.3 7 Norte 21 Nordeste 0 -- -- 99
2019-07-28 06:00:00 10.9 14 Nordeste 26 Nordeste 0 -- -- 99
2019-07-28 05:00:00 10.8 6 Nordeste 18 Norte 0.4 -- -- 99
2019-07-28 04:00:00 10.7 8 Nordeste 31 Norte 0 -- -- 96
2019-07-28 03:00:00 10.6 14 Norte 32 Norte 0 -- -- 95
2019-07-28 02:00:00 10.4 18 Nordeste 31 Nordeste 0 -- -- 95
2019-07-28 01:00:00 10.9 11 Nordeste 30 Nordeste 0 -- -- 98
2019-07-28 00:00:00 11 13 Norte 24 Noroeste 0.4 -- -- 99
2019-07-27 23:00:00 10.8 8 Nordeste 29 Nordeste 0 -- -- 98
2019-07-26 12:00:00 -- -- -- -- -- -- -- -- --
2019-07-26 11:00:00 17.2 5 Oeste 13 Nordeste 4 -- -- 98
2019-07-26 10:00:00 18.3 2 Noroeste 10 Nordeste 0.2 -- -- 93
2019-07-26 09:00:00 19.2 4 Norte 12 Nordeste 0 -- -- 94
2019-07-26 08:00:00 16.8 8 Nordeste 14 Nordeste 0.4 -- -- 97
2019-07-26 07:00:00 16.3 5 Norte 9 Nordeste 0 -- -- 94
2019-07-26 06:00:00 16.4 3 Noroeste 11 Norte 0 -- -- 93
2019-07-26 05:00:00 17 7 Noroeste 12 Nordeste 0 -- -- 91
2019-07-26 04:00:00 17.8 6 Nordeste 16 Nordeste 0.2 -- -- 90
2019-07-26 03:00:00 17.7 0 Calma 10 Noroeste 0 -- -- 89
2019-07-26 02:00:00 17.7 2 Norte 12 Norte 0 -- -- 92
2019-07-26 01:00:00 18.4 2 Nordeste 9 Nordeste 0 -- -- 88
2019-07-26 00:00:00 18.5 2 Este 7 Sudoeste 0 -- -- 87